RJSC/GAJ METAR and TAF weather

Enter ICAO airport designator
Station Type Date Time Source
RJSC METAR 2020/07/10 10:00 UTC NOAA

RJSC 101000Z 00000KT 4000 SHRA BR FEW003 SCT010 BKN015 23/22 Q1010


Station Type Date Time Source
RJSC Decoded METAR 2020/07/10 10:00 UTC NOAA

Yamagata Airport, Japan (RJSC) 38-25N 140-22E 108M
Jul 10, 2020 - 06:00 AM EDT / 2020.07.10 1000 UTC
Wind: Calm:0
Visibility: 2 mile(s):0
Sky conditions: mostly cloudy
Weather: rain showers; mist
Temperature: 73 F (23 C)
Dew Point: 71 F (22 C)
Relative Humidity: 94%
Pressure (altimeter): 29.83 in. Hg (1010 hPa)
ob: RJSC 101000Z 00000KT 4000 SHRA BR FEW003 SCT010 BKN015 23/22 Q1010
cycle: 10

Station Type Date Time Source
RJSC TAF UTC NOAA

Error!

Example: see airport list